sensor_id;sensor_type;location;lat;lon;timestamp;P1;durP1;ratioP1;P2;durP2;ratioP2
79487;SDS011;68949;53.176;18.088;2024-01-30T00:01:53;34.10;;;14.30;;
79487;SDS011;68949;53.176;18.088;2024-01-30T00:04:20;39.70;;;14.70;;
79487;SDS011;68949;53.176;18.088;2024-01-30T00:06:47;37.20;;;15.30;;
79487;SDS011;68949;53.176;18.088;2024-01-30T00:09:14;32.00;;;12.40;;
79487;SDS011;68949;53.176;18.088;2024-01-30T00:11:41;31.50;;;12.40;;
79487;SDS011;68949;53.176;18.088;2024-01-30T00:14:08;34.50;;;14.50;;
79487;SDS011;68949;53.176;18.088;2024-01-30T00:16:34;31.50;;;13.40;;
79487;SDS011;68949;53.176;18.088;2024-01-30T00:19:01;33.10;;;14.50;;
79487;SDS011;68949;53.176;18.088;2024-01-30T00:21:29;32.30;;;12.80;;
79487;SDS011;68949;53.176;18.088;2024-01-30T00:23:55;30.90;;;13.10;;
79487;SDS011;68949;53.176;18.088;2024-01-30T00:26:23;29.50;;;12.70;;
79487;SDS011;68949;53.176;18.088;2024-01-30T00:28:50;34.90;;;13.00;;
79487;SDS011;68949;53.176;18.088;2024-01-30T00:31:16;34.80;;;13.40;;
79487;SDS011;68949;53.176;18.088;2024-01-30T00:33:43;28.10;;;11.80;;
79487;SDS011;68949;53.176;18.088;2024-01-30T00:36:10;26.60;;;10.60;;
79487;SDS011;68949;53.176;18.088;2024-01-30T00:38:37;27.90;;;11.70;;
79487;SDS011;68949;53.176;18.088;2024-01-30T00:41:04;33.70;;;13.70;;
79487;SDS011;68949;53.176;18.088;2024-01-30T00:43:31;34.10;;;12.60;;
79487;SDS011;68949;53.176;18.088;2024-01-30T00:45:58;34.30;;;13.10;;
79487;SDS011;68949;53.176;18.088;2024-01-30T00:48:25;35.30;;;12.90;;
79487;SDS011;68949;53.176;18.088;2024-01-30T00:50:52;29.40;;;12.20;;
79487;SDS011;68949;53.176;18.088;2024-01-30T00:53:19;29.10;;;12.70;;
79487;SDS011;68949;53.176;18.088;2024-01-30T00:55:46;29.80;;;11.90;;
79487;SDS011;68949;53.176;18.088;2024-01-30T00:58:13;24.30;;;9.20;;
79487;SDS011;68949;53.176;18.088;2024-01-30T01:00:40;25.00;;;9.00;;
79487;SDS011;68949;53.176;18.088;2024-01-30T01:03:06;32.40;;;13.70;;
79487;SDS011;68949;53.176;18.088;2024-01-30T01:05:33;41.80;;;14.40;;
79487;SDS011;68949;53.176;18.088;2024-01-30T01:08:00;34.20;;;14.40;;
79487;SDS011;68949;53.176;18.088;2024-01-30T01:10:26;34.50;;;13.40;;
79487;SDS011;68949;53.176;18.088;2024-01-30T01:12:53;34.80;;;12.20;;
79487;SDS011;68949;53.176;18.088;2024-01-30T01:15:20;31.60;;;12.60;;
79487;SDS011;68949;53.176;18.088;2024-01-30T01:17:47;31.70;;;12.10;;
79487;SDS011;68949;53.176;18.088;2024-01-30T01:20:14;29.90;;;11.40;;
79487;SDS011;68949;53.176;18.088;2024-01-30T01:22:40;30.10;;;11.00;;
79487;SDS011;68949;53.176;18.088;2024-01-30T01:25:08;26.50;;;11.20;;
79487;SDS011;68949;53.176;18.088;2024-01-30T01:27:36;33.90;;;12.60;;
79487;SDS011;68949;53.176;18.088;2024-01-30T01:30:10;35.30;;;13.00;;
79487;SDS011;68949;53.176;18.088;2024-01-30T01:32:38;29.50;;;10.90;;
79487;SDS011;68949;53.176;18.088;2024-01-30T01:35:05;28.30;;;11.10;;
79487;SDS011;68949;53.176;18.088;2024-01-30T01:37:34;25.20;;;10.20;;
79487;SDS011;68949;53.176;18.088;2024-01-30T01:40:00;28.10;;;10.60;;
79487;SDS011;68949;53.176;18.088;2024-01-30T01:42:27;27.60;;;11.40;;
79487;SDS011;68949;53.176;18.088;2024-01-30T01:44:54;29.10;;;11.00;;
79487;SDS011;68949;53.176;18.088;2024-01-30T01:47:21;33.20;;;11.40;;
79487;SDS011;68949;53.176;18.088;2024-01-30T01:49:47;25.70;;;9.90;;
79487;SDS011;68949;53.176;18.088;2024-01-30T01:52:15;25.50;;;10.60;;
79487;SDS011;68949;53.176;18.088;2024-01-30T01:54:42;30.60;;;11.90;;
79487;SDS011;68949;53.176;18.088;2024-01-30T01:57:08;30.70;;;12.50;;
79487;SDS011;68949;53.176;18.088;2024-01-30T01:59:36;29.70;;;11.00;;
79487;SDS011;68949;53.176;18.088;2024-01-30T02:02:03;30.60;;;12.30;;
79487;SDS011;68949;53.176;18.088;2024-01-30T02:04:31;32.70;;;12.30;;
79487;SDS011;68949;53.176;18.088;2024-01-30T02:06:57;26.20;;;11.10;;
79487;SDS011;68949;53.176;18.088;2024-01-30T02:09:24;29.60;;;10.80;;
79487;SDS011;68949;53.176;18.088;2024-01-30T02:11:51;26.70;;;11.10;;
79487;SDS011;68949;53.176;18.088;2024-01-30T02:14:18;31.60;;;11.30;;
79487;SDS011;68949;53.176;18.088;2024-01-30T02:16:45;28.70;;;11.00;;
79487;SDS011;68949;53.176;18.088;2024-01-30T02:19:11;32.10;;;12.40;;
79487;SDS011;68949;53.176;18.088;2024-01-30T02:21:39;32.00;;;11.80;;
79487;SDS011;68949;53.176;18.088;2024-01-30T02:24:05;31.40;;;11.10;;
79487;SDS011;68949;53.176;18.088;2024-01-30T02:26:32;31.80;;;11.60;;
79487;SDS011;68949;53.176;18.088;2024-01-30T02:28:59;29.20;;;12.00;;
79487;SDS011;68949;53.176;18.088;2024-01-30T02:31:26;26.80;;;11.10;;
79487;SDS011;68949;53.176;18.088;2024-01-30T02:33:52;29.10;;;11.10;;
79487;SDS011;68949;53.176;18.088;2024-01-30T02:36:19;26.70;;;10.70;;
79487;SDS011;68949;53.176;18.088;2024-01-30T02:38:46;30.20;;;11.80;;
79487;SDS011;68949;53.176;18.088;2024-01-30T02:41:12;23.00;;;10.10;;
79487;SDS011;68949;53.176;18.088;2024-01-30T02:43:39;24.90;;;10.20;;
79487;SDS011;68949;53.176;18.088;2024-01-30T02:46:06;29.40;;;11.70;;
79487;SDS011;68949;53.176;18.088;2024-01-30T02:48:33;34.80;;;13.30;;
79487;SDS011;68949;53.176;18.088;2024-01-30T02:50:59;27.10;;;11.20;;
79487;SDS011;68949;53.176;18.088;2024-01-30T02:53:26;33.20;;;12.60;;
79487;SDS011;68949;53.176;18.088;2024-01-30T02:55:53;25.70;;;11.90;;
79487;SDS011;68949;53.176;18.088;2024-01-30T02:58:19;26.00;;;10.90;;
79487;SDS011;68949;53.176;18.088;2024-01-30T03:00:46;25.40;;;10.90;;
79487;SDS011;68949;53.176;18.088;2024-01-30T03:03:13;25.70;;;10.90;;
79487;SDS011;68949;53.176;18.088;2024-01-30T03:05:40;25.20;;;9.80;;
79487;SDS011;68949;53.176;18.088;2024-01-30T03:08:07;29.00;;;11.50;;
79487;SDS011;68949;53.176;18.088;2024-01-30T03:10:33;26.40;;;11.80;;
79487;SDS011;68949;53.176;18.088;2024-01-30T03:13:00;26.10;;;12.20;;
79487;SDS011;68949;53.176;18.088;2024-01-30T03:15:27;26.30;;;10.90;;
79487;SDS011;68949;53.176;18.088;2024-01-30T03:17:53;31.90;;;11.00;;
79487;SDS011;68949;53.176;18.088;2024-01-30T03:20:20;26.90;;;11.60;;
79487;SDS011;68949;53.176;18.088;2024-01-30T03:22:47;25.00;;;11.10;;
79487;SDS011;68949;53.176;18.088;2024-01-30T03:25:13;25.80;;;10.40;;
79487;SDS011;68949;53.176;18.088;2024-01-30T03:27:40;31.50;;;11.30;;
79487;SDS011;68949;53.176;18.088;2024-01-30T03:30:07;27.70;;;10.70;;
79487;SDS011;68949;53.176;18.088;2024-01-30T03:32:34;29.70;;;11.70;;
79487;SDS011;68949;53.176;18.088;2024-01-30T03:35:01;29.70;;;11.30;;
79487;SDS011;68949;53.176;18.088;2024-01-30T03:37:28;30.20;;;11.40;;
79487;SDS011;68949;53.176;18.088;2024-01-30T03:39:55;28.00;;;11.80;;
79487;SDS011;68949;53.176;18.088;2024-01-30T03:42:21;31.00;;;11.50;;
79487;SDS011;68949;53.176;18.088;2024-01-30T03:44:49;27.70;;;10.60;;
79487;SDS011;68949;53.176;18.088;2024-01-30T03:47:18;31.00;;;11.10;;
79487;SDS011;68949;53.176;18.088;2024-01-30T03:49:46;29.30;;;11.20;;
79487;SDS011;68949;53.176;18.088;2024-01-30T03:52:13;28.60;;;12.20;;
79487;SDS011;68949;53.176;18.088;2024-01-30T03:54:39;29.70;;;12.10;;
79487;SDS011;68949;53.176;18.088;2024-01-30T03:57:06;33.20;;;11.00;;
79487;SDS011;68949;53.176;18.088;2024-01-30T03:59:33;30.80;;;10.00;;
79487;SDS011;68949;53.176;18.088;2024-01-30T04:01:59;29.50;;;13.10;;
79487;SDS011;68949;53.176;18.088;2024-01-30T04:04:26;23.00;;;11.00;;
79487;SDS011;68949;53.176;18.088;2024-01-30T04:06:53;27.20;;;11.30;;
79487;SDS011;68949;53.176;18.088;2024-01-30T04:09:20;31.40;;;12.30;;
79487;SDS011;68949;53.176;18.088;2024-01-30T04:11:46;32.40;;;12.10;;
79487;SDS011;68949;53.176;18.088;2024-01-30T04:14:13;31.20;;;12.10;;
79487;SDS011;68949;53.176;18.088;2024-01-30T04:16:40;26.00;;;10.90;;
79487;SDS011;68949;53.176;18.088;2024-01-30T04:19:06;29.10;;;12.00;;
79487;SDS011;68949;53.176;18.088;2024-01-30T04:21:33;21.00;;;8.90;;
79487;SDS011;68949;53.176;18.088;2024-01-30T04:24:00;27.10;;;11.30;;
79487;SDS011;68949;53.176;18.088;2024-01-30T04:26:26;26.60;;;11.10;;
79487;SDS011;68949;53.176;18.088;2024-01-30T04:28:53;24.40;;;10.80;;
79487;SDS011;68949;53.176;18.088;2024-01-30T04:31:20;26.80;;;11.60;;
79487;SDS011;68949;53.176;18.088;2024-01-30T04:36:13;31.30;;;12.00;;
79487;SDS011;68949;53.176;18.088;2024-01-30T04:38:40;29.10;;;11.60;;
79487;SDS011;68949;53.176;18.088;2024-01-30T04:41:07;26.70;;;10.70;;
79487;SDS011;68949;53.176;18.088;2024-01-30T04:43:36;29.40;;;11.00;;
79487;SDS011;68949;53.176;18.088;2024-01-30T04:46:04;31.10;;;12.20;;
79487;SDS011;68949;53.176;18.088;2024-01-30T04:48:30;22.20;;;9.90;;
79487;SDS011;68949;53.176;18.088;2024-01-30T04:50:57;25.00;;;9.60;;
79487;SDS011;68949;53.176;18.088;2024-01-30T04:53:24;32.90;;;11.60;;
79487;SDS011;68949;53.176;18.088;2024-01-30T04:55:51;29.80;;;11.90;;
79487;SDS011;68949;53.176;18.088;2024-01-30T04:58:17;28.90;;;11.90;;
79487;SDS011;68949;53.176;18.088;2024-01-30T05:00:44;31.10;;;11.70;;
79487;SDS011;68949;53.176;18.088;2024-01-30T05:03:12;27.50;;;11.30;;
79487;SDS011;68949;53.176;18.088;2024-01-30T05:05:39;23.70;;;10.20;;
79487;SDS011;68949;53.176;18.088;2024-01-30T05:08:06;22.40;;;8.90;;
79487;SDS011;68949;53.176;18.088;2024-01-30T05:10:32;28.80;;;11.10;;
79487;SDS011;68949;53.176;18.088;2024-01-30T05:12:59;20.70;;;8.10;;
79487;SDS011;68949;53.176;18.088;2024-01-30T05:15:26;30.20;;;12.70;;
79487;SDS011;68949;53.176;18.088;2024-01-30T05:17:52;35.80;;;14.40;;
79487;SDS011;68949;53.176;18.088;2024-01-30T05:20:19;41.20;;;16.00;;
79487;SDS011;68949;53.176;18.088;2024-01-30T05:22:46;30.80;;;13.70;;
79487;SDS011;68949;53.176;18.088;2024-01-30T05:25:13;31.90;;;13.00;;
79487;SDS011;68949;53.176;18.088;2024-01-30T05:27:40;29.70;;;11.60;;
79487;SDS011;68949;53.176;18.088;2024-01-30T05:30:07;25.70;;;10.60;;
79487;SDS011;68949;53.176;18.088;2024-01-30T05:32:34;30.50;;;10.50;;
79487;SDS011;68949;53.176;18.088;2024-01-30T05:35:01;33.90;;;12.70;;
79487;SDS011;68949;53.176;18.088;2024-01-30T05:37:28;26.70;;;12.10;;
79487;SDS011;68949;53.176;18.088;2024-01-30T05:39:54;25.10;;;10.60;;
79487;SDS011;68949;53.176;18.088;2024-01-30T05:42:21;33.10;;;13.50;;
79487;SDS011;68949;53.176;18.088;2024-01-30T05:44:47;32.70;;;12.80;;
79487;SDS011;68949;53.176;18.088;2024-01-30T05:47:14;31.60;;;12.20;;
79487;SDS011;68949;53.176;18.088;2024-01-30T05:49:42;30.20;;;11.90;;
79487;SDS011;68949;53.176;18.088;2024-01-30T05:52:08;26.60;;;11.40;;
79487;SDS011;68949;53.176;18.088;2024-01-30T05:54:36;28.20;;;10.70;;
79487;SDS011;68949;53.176;18.088;2024-01-30T05:57:03;29.00;;;11.50;;
79487;SDS011;68949;53.176;18.088;2024-01-30T05:59:29;32.00;;;12.10;;
79487;SDS011;68949;53.176;18.088;2024-01-30T06:01:56;30.90;;;12.80;;
79487;SDS011;68949;53.176;18.088;2024-01-30T06:04:23;30.50;;;12.20;;
79487;SDS011;68949;53.176;18.088;2024-01-30T06:06:50;30.40;;;12.60;;
79487;SDS011;68949;53.176;18.088;2024-01-30T06:09:16;28.40;;;11.40;;
79487;SDS011;68949;53.176;18.088;2024-01-30T06:11:43;29.70;;;10.70;;
79487;SDS011;68949;53.176;18.088;2024-01-30T06:14:10;25.50;;;11.10;;
79487;SDS011;68949;53.176;18.088;2024-01-30T06:16:36;34.00;;;12.30;;
79487;SDS011;68949;53.176;18.088;2024-01-30T06:19:03;29.40;;;11.10;;
79487;SDS011;68949;53.176;18.088;2024-01-30T06:21:30;23.90;;;8.70;;
79487;SDS011;68949;53.176;18.088;2024-01-30T06:23:58;30.30;;;12.40;;
79487;SDS011;68949;53.176;18.088;2024-01-30T06:26:24;29.90;;;12.00;;
79487;SDS011;68949;53.176;18.088;2024-01-30T06:28:51;31.40;;;11.90;;
79487;SDS011;68949;53.176;18.088;2024-01-30T06:31:18;37.80;;;12.20;;
79487;SDS011;68949;53.176;18.088;2024-01-30T06:33:47;28.00;;;12.30;;
79487;SDS011;68949;53.176;18.088;2024-01-30T06:36:13;24.40;;;11.60;;
79487;SDS011;68949;53.176;18.088;2024-01-30T06:38:41;30.10;;;13.30;;
79487;SDS011;68949;53.176;18.088;2024-01-30T06:41:07;29.80;;;11.60;;
79487;SDS011;68949;53.176;18.088;2024-01-30T06:43:34;27.30;;;10.20;;
79487;SDS011;68949;53.176;18.088;2024-01-30T06:46:02;28.70;;;12.30;;
79487;SDS011;68949;53.176;18.088;2024-01-30T06:48:30;25.00;;;11.90;;
79487;SDS011;68949;53.176;18.088;2024-01-30T06:50:57;32.60;;;11.90;;
79487;SDS011;68949;53.176;18.088;2024-01-30T06:53:24;28.20;;;10.80;;
79487;SDS011;68949;53.176;18.088;2024-01-30T06:55:53;28.30;;;11.00;;
79487;SDS011;68949;53.176;18.088;2024-01-30T06:58:19;25.20;;;10.80;;
79487;SDS011;68949;53.176;18.088;2024-01-30T07:00:46;28.70;;;11.70;;
79487;SDS011;68949;53.176;18.088;2024-01-30T07:03:13;34.40;;;12.70;;
79487;SDS011;68949;53.176;18.088;2024-01-30T07:05:39;27.60;;;12.00;;
79487;SDS011;68949;53.176;18.088;2024-01-30T07:08:06;33.60;;;12.10;;
79487;SDS011;68949;53.176;18.088;2024-01-30T07:10:33;32.30;;;11.50;;
79487;SDS011;68949;53.176;18.088;2024-01-30T07:13:01;30.60;;;13.00;;
79487;SDS011;68949;53.176;18.088;2024-01-30T07:15:27;31.60;;;13.00;;
79487;SDS011;68949;53.176;18.088;2024-01-30T07:17:54;33.60;;;12.00;;
79487;SDS011;68949;53.176;18.088;2024-01-30T07:20:21;30.20;;;12.60;;
79487;SDS011;68949;53.176;18.088;2024-01-30T07:22:48;30.50;;;11.50;;
79487;SDS011;68949;53.176;18.088;2024-01-30T07:25:14;26.70;;;12.30;;
79487;SDS011;68949;53.176;18.088;2024-01-30T07:27:43;29.60;;;12.90;;
79487;SDS011;68949;53.176;18.088;2024-01-30T07:30:10;37.00;;;12.40;;
79487;SDS011;68949;53.176;18.088;2024-01-30T07:32:36;30.00;;;11.40;;
79487;SDS011;68949;53.176;18.088;2024-01-30T07:35:04;30.40;;;11.90;;
79487;SDS011;68949;53.176;18.088;2024-01-30T07:37:31;28.50;;;12.30;;
79487;SDS011;68949;53.176;18.088;2024-01-30T07:39:58;27.60;;;11.50;;
79487;SDS011;68949;53.176;18.088;2024-01-30T07:42:25;30.10;;;11.30;;
79487;SDS011;68949;53.176;18.088;2024-01-30T07:44:52;27.50;;;10.60;;
79487;SDS011;68949;53.176;18.088;2024-01-30T07:47:18;30.50;;;12.00;;
79487;SDS011;68949;53.176;18.088;2024-01-30T07:49:45;33.10;;;12.90;;
79487;SDS011;68949;53.176;18.088;2024-01-30T07:52:12;31.30;;;11.90;;
79487;SDS011;68949;53.176;18.088;2024-01-30T07:54:38;27.90;;;11.20;;
79487;SDS011;68949;53.176;18.088;2024-01-30T07:57:05;31.50;;;12.50;;
79487;SDS011;68949;53.176;18.088;2024-01-30T07:59:32;27.00;;;11.90;;
79487;SDS011;68949;53.176;18.088;2024-01-30T08:01:58;20.80;;;9.10;;
79487;SDS011;68949;53.176;18.088;2024-01-30T08:04:25;28.30;;;10.20;;
79487;SDS011;68949;53.176;18.088;2024-01-30T08:06:52;24.90;;;11.10;;
79487;SDS011;68949;53.176;18.088;2024-01-30T08:09:18;28.50;;;12.30;;
79487;SDS011;68949;53.176;18.088;2024-01-30T08:11:45;25.50;;;12.00;;
79487;SDS011;68949;53.176;18.088;2024-01-30T08:14:12;27.60;;;11.50;;
79487;SDS011;68949;53.176;18.088;2024-01-30T08:16:40;25.70;;;10.60;;
79487;SDS011;68949;53.176;18.088;2024-01-30T08:19:06;27.90;;;12.40;;
79487;SDS011;68949;53.176;18.088;2024-01-30T08:21:33;25.80;;;11.90;;
79487;SDS011;68949;53.176;18.088;2024-01-30T08:24:03;27.00;;;11.50;;
79487;SDS011;68949;53.176;18.088;2024-01-30T08:26:34;31.40;;;12.40;;
79487;SDS011;68949;53.176;18.088;2024-01-30T08:29:01;25.70;;;10.60;;
79487;SDS011;68949;53.176;18.088;2024-01-30T08:31:28;30.10;;;11.20;;
79487;SDS011;68949;53.176;18.088;2024-01-30T08:33:55;28.90;;;12.10;;
79487;SDS011;68949;53.176;18.088;2024-01-30T08:36:21;30.00;;;11.20;;
79487;SDS011;68949;53.176;18.088;2024-01-30T08:38:48;27.80;;;12.10;;
79487;SDS011;68949;53.176;18.088;2024-01-30T08:41:15;28.30;;;11.70;;
79487;SDS011;68949;53.176;18.088;2024-01-30T08:43:41;23.70;;;9.10;;
79487;SDS011;68949;53.176;18.088;2024-01-30T08:46:08;30.10;;;11.20;;
79487;SDS011;68949;53.176;18.088;2024-01-30T08:48:35;29.80;;;11.20;;
79487;SDS011;68949;53.176;18.088;2024-01-30T08:51:02;22.60;;;9.00;;
79487;SDS011;68949;53.176;18.088;2024-01-30T08:53:29;37.50;;;14.40;;
79487;SDS011;68949;53.176;18.088;2024-01-30T08:55:56;31.90;;;12.30;;
79487;SDS011;68949;53.176;18.088;2024-01-30T08:58:25;29.80;;;13.40;;
79487;SDS011;68949;53.176;18.088;2024-01-30T09:00:52;30.90;;;12.30;;
79487;SDS011;68949;53.176;18.088;2024-01-30T09:03:19;31.80;;;11.90;;
79487;SDS011;68949;53.176;18.088;2024-01-30T09:05:45;32.50;;;13.40;;
79487;SDS011;68949;53.176;18.088;2024-01-30T09:08:12;32.30;;;13.50;;
79487;SDS011;68949;53.176;18.088;2024-01-30T09:10:39;28.00;;;11.80;;
79487;SDS011;68949;53.176;18.088;2024-01-30T09:13:06;29.10;;;12.90;;
79487;SDS011;68949;53.176;18.088;2024-01-30T09:15:32;33.20;;;12.30;;
79487;SDS011;68949;53.176;18.088;2024-01-30T09:17:59;25.10;;;12.00;;
79487;SDS011;68949;53.176;18.088;2024-01-30T09:20:25;31.20;;;12.10;;
79487;SDS011;68949;53.176;18.088;2024-01-30T09:22:52;28.40;;;13.60;;
79487;SDS011;68949;53.176;18.088;2024-01-30T09:25:19;26.50;;;11.40;;
79487;SDS011;68949;53.176;18.088;2024-01-30T09:27:46;26.50;;;11.80;;
79487;SDS011;68949;53.176;18.088;2024-01-30T09:30:13;24.50;;;10.00;;
79487;SDS011;68949;53.176;18.088;2024-01-30T09:32:40;22.10;;;10.30;;
79487;SDS011;68949;53.176;18.088;2024-01-30T09:35:07;21.70;;;9.10;;
79487;SDS011;68949;53.176;18.088;2024-01-30T09:37:34;26.50;;;8.00;;
79487;SDS011;68949;53.176;18.088;2024-01-30T09:40:01;20.00;;;8.90;;
79487;SDS011;68949;53.176;18.088;2024-01-30T09:42:33;20.80;;;8.50;;
79487;SDS011;68949;53.176;18.088;2024-01-30T09:45:05;20.60;;;9.60;;
79487;SDS011;68949;53.176;18.088;2024-01-30T09:50:06;24.80;;;8.50;;
79487;SDS011;68949;53.176;18.088;2024-01-30T09:52:33;16.90;;;7.30;;
79487;SDS011;68949;53.176;18.088;2024-01-30T09:55:00;18.00;;;8.20;;
79487;SDS011;68949;53.176;18.088;2024-01-30T09:57:27;19.50;;;9.10;;
79487;SDS011;68949;53.176;18.088;2024-01-30T09:59:54;16.80;;;8.40;;
79487;SDS011;68949;53.176;18.088;2024-01-30T10:02:21;16.70;;;7.30;;
79487;SDS011;68949;53.176;18.088;2024-01-30T10:04:49;20.40;;;8.60;;
79487;SDS011;68949;53.176;18.088;2024-01-30T10:07:17;15.80;;;7.70;;
79487;SDS011;68949;53.176;18.088;2024-01-30T10:09:45;18.80;;;7.10;;
79487;SDS011;68949;53.176;18.088;2024-01-30T10:12:13;18.80;;;7.80;;
79487;SDS011;68949;53.176;18.088;2024-01-30T10:14:40;20.50;;;8.80;;
79487;SDS011;68949;53.176;18.088;2024-01-30T10:17:08;18.70;;;7.90;;
79487;SDS011;68949;53.176;18.088;2024-01-30T10:19:37;20.60;;;8.50;;
79487;SDS011;68949;53.176;18.088;2024-01-30T10:22:04;18.90;;;8.90;;
79487;SDS011;68949;53.176;18.088;2024-01-30T10:24:33;20.50;;;8.60;;
79487;SDS011;68949;53.176;18.088;2024-01-30T10:27:00;15.50;;;7.10;;
79487;SDS011;68949;53.176;18.088;2024-01-30T10:29:27;18.50;;;8.30;;
79487;SDS011;68949;53.176;18.088;2024-01-30T10:32:02;18.00;;;7.50;;
79487;SDS011;68949;53.176;18.088;2024-01-30T10:34:29;20.20;;;8.60;;
79487;SDS011;68949;53.176;18.088;2024-01-30T10:37:07;18.20;;;7.00;;
79487;SDS011;68949;53.176;18.088;2024-01-30T10:39:45;20.40;;;8.40;;
79487;SDS011;68949;53.176;18.088;2024-01-30T10:42:18;15.20;;;6.80;;
79487;SDS011;68949;53.176;18.088;2024-01-30T10:45:03;18.60;;;8.00;;
79487;SDS011;68949;53.176;18.088;2024-01-30T10:47:36;14.70;;;6.40;;
79487;SDS011;68949;53.176;18.088;2024-01-30T10:50:05;9.70;;;6.80;;
79487;SDS011;68949;53.176;18.088;2024-01-30T10:52:32;15.00;;;6.70;;
79487;SDS011;68949;53.176;18.088;2024-01-30T10:55:00;18.10;;;8.20;;
79487;SDS011;68949;53.176;18.088;2024-01-30T10:57:27;17.50;;;7.40;;
79487;SDS011;68949;53.176;18.088;2024-01-30T10:59:56;16.70;;;7.50;;
79487;SDS011;68949;53.176;18.088;2024-01-30T11:02:25;16.20;;;8.20;;
79487;SDS011;68949;53.176;18.088;2024-01-30T11:04:57;15.40;;;7.30;;
79487;SDS011;68949;53.176;18.088;2024-01-30T11:07:26;15.70;;;7.30;;
79487;SDS011;68949;53.176;18.088;2024-01-30T11:12:25;15.10;;;6.70;;
79487;SDS011;68949;53.176;18.088;2024-01-30T11:15:37;15.60;;;7.00;;
79487;SDS011;68949;53.176;18.088;2024-01-30T11:17:57;15.60;;;7.60;;
79487;SDS011;68949;53.176;18.088;2024-01-30T11:20:29;18.40;;;8.70;;
79487;SDS011;68949;53.176;18.088;2024-01-30T11:22:58;20.30;;;8.30;;
79487;SDS011;68949;53.176;18.088;2024-01-30T11:25:26;17.50;;;7.20;;
79487;SDS011;68949;53.176;18.088;2024-01-30T11:27:54;18.80;;;7.50;;
79487;SDS011;68949;53.176;18.088;2024-01-30T11:30:40;15.40;;;6.40;;
79487;SDS011;68949;53.176;18.088;2024-01-30T11:33:12;20.70;;;9.30;;
79487;SDS011;68949;53.176;18.088;2024-01-30T11:35:44;18.70;;;7.80;;
79487;SDS011;68949;53.176;18.088;2024-01-30T11:38:13;18.30;;;8.20;;
79487;SDS011;68949;53.176;18.088;2024-01-30T11:40:43;20.20;;;8.10;;
79487;SDS011;68949;53.176;18.088;2024-01-30T11:43:10;18.10;;;7.40;;
79487;SDS011;68949;53.176;18.088;2024-01-30T11:45:37;20.30;;;8.80;;
79487;SDS011;68949;53.176;18.088;2024-01-30T11:48:05;14.70;;;7.10;;
79487;SDS011;68949;53.176;18.088;2024-01-30T11:50:34;16.80;;;6.80;;
79487;SDS011;68949;53.176;18.088;2024-01-30T11:53:02;15.90;;;6.30;;
79487;SDS011;68949;53.176;18.088;2024-01-30T11:55:30;17.80;;;7.60;;
79487;SDS011;68949;53.176;18.088;2024-01-30T11:57:58;14.80;;;6.90;;
79487;SDS011;68949;53.176;18.088;2024-01-30T12:00:25;17.10;;;7.10;;
79487;SDS011;68949;53.176;18.088;2024-01-30T12:02:53;14.80;;;6.70;;
79487;SDS011;68949;53.176;18.088;2024-01-30T12:05:24;12.90;;;5.20;;
79487;SDS011;68949;53.176;18.088;2024-01-30T12:07:52;17.90;;;7.10;;
79487;SDS011;68949;53.176;18.088;2024-01-30T12:10:21;16.10;;;6.50;;
79487;SDS011;68949;53.176;18.088;2024-01-30T12:12:51;14.70;;;6.20;;
79487;SDS011;68949;53.176;18.088;2024-01-30T12:15:19;18.00;;;7.60;;
79487;SDS011;68949;53.176;18.088;2024-01-30T12:17:49;16.60;;;7.60;;
79487;SDS011;68949;53.176;18.088;2024-01-30T12:20:19;16.40;;;6.60;;
79487;SDS011;68949;53.176;18.088;2024-01-30T12:22:48;19.90;;;7.90;;
79487;SDS011;68949;53.176;18.088;2024-01-30T12:25:18;15.60;;;7.60;;
79487;SDS011;68949;53.176;18.088;2024-01-30T12:27:48;18.60;;;8.10;;
79487;SDS011;68949;53.176;18.088;2024-01-30T12:30:20;13.50;;;6.20;;
79487;SDS011;68949;53.176;18.088;2024-01-30T12:32:49;16.60;;;6.80;;
79487;SDS011;68949;53.176;18.088;2024-01-30T12:35:20;16.60;;;7.30;;
79487;SDS011;68949;53.176;18.088;2024-01-30T12:37:48;20.00;;;7.20;;
79487;SDS011;68949;53.176;18.088;2024-01-30T12:40:16;16.80;;;6.30;;
79487;SDS011;68949;53.176;18.088;2024-01-30T12:42:46;14.30;;;6.00;;
79487;SDS011;68949;53.176;18.088;2024-01-30T12:45:15;16.70;;;8.20;;
79487;SDS011;68949;53.176;18.088;2024-01-30T12:47:42;16.90;;;7.60;;
79487;SDS011;68949;53.176;18.088;2024-01-30T12:50:10;15.90;;;7.40;;
79487;SDS011;68949;53.176;18.088;2024-01-30T12:52:39;15.80;;;7.10;;
79487;SDS011;68949;53.176;18.088;2024-01-30T12:55:06;16.80;;;7.60;;
79487;SDS011;68949;53.176;18.088;2024-01-30T12:57:33;16.30;;;7.80;;
79487;SDS011;68949;53.176;18.088;2024-01-30T13:00:00;19.50;;;8.30;;
79487;SDS011;68949;53.176;18.088;2024-01-30T13:02:27;15.70;;;7.40;;
79487;SDS011;68949;53.176;18.088;2024-01-30T13:05:01;14.90;;;6.70;;
79487;SDS011;68949;53.176;18.088;2024-01-30T13:07:29;16.60;;;7.70;;
79487;SDS011;68949;53.176;18.088;2024-01-30T13:09:58;16.70;;;7.50;;
79487;SDS011;68949;53.176;18.088;2024-01-30T13:12:30;18.00;;;7.80;;
79487;SDS011;68949;53.176;18.088;2024-01-30T13:14:59;18.90;;;9.10;;
79487;SDS011;68949;53.176;18.088;2024-01-30T13:17:30;21.70;;;6.90;;
79487;SDS011;68949;53.176;18.088;2024-01-30T13:19:57;11.00;;;5.20;;
79487;SDS011;68949;53.176;18.088;2024-01-30T13:22:24;17.80;;;7.70;;
79487;SDS011;68949;53.176;18.088;2024-01-30T13:24:51;15.00;;;6.60;;
79487;SDS011;68949;53.176;18.088;2024-01-30T13:27:17;17.70;;;7.30;;
79487;SDS011;68949;53.176;18.088;2024-01-30T13:29:44;17.80;;;7.30;;
79487;SDS011;68949;53.176;18.088;2024-01-30T13:32:11;16.10;;;6.60;;
79487;SDS011;68949;53.176;18.088;2024-01-30T13:34:37;17.20;;;7.60;;
79487;SDS011;68949;53.176;18.088;2024-01-30T13:37:05;15.80;;;6.70;;
79487;SDS011;68949;53.176;18.088;2024-01-30T13:39:32;16.40;;;7.00;;
79487;SDS011;68949;53.176;18.088;2024-01-30T13:41:58;18.50;;;6.90;;
79487;SDS011;68949;53.176;18.088;2024-01-30T13:44:25;15.70;;;7.50;;
79487;SDS011;68949;53.176;18.088;2024-01-30T13:46:52;20.00;;;9.00;;
79487;SDS011;68949;53.176;18.088;2024-01-30T13:49:19;18.70;;;8.40;;
79487;SDS011;68949;53.176;18.088;2024-01-30T13:51:46;18.40;;;7.40;;
79487;SDS011;68949;53.176;18.088;2024-01-30T13:54:13;15.90;;;7.20;;
79487;SDS011;68949;53.176;18.088;2024-01-30T13:56:41;22.90;;;8.10;;
79487;SDS011;68949;53.176;18.088;2024-01-30T13:59:08;18.00;;;8.60;;
79487;SDS011;68949;53.176;18.088;2024-01-30T14:01:35;18.00;;;8.40;;
79487;SDS011;68949;53.176;18.088;2024-01-30T14:04:01;20.20;;;8.10;;
79487;SDS011;68949;53.176;18.088;2024-01-30T14:06:28;15.20;;;6.30;;
79487;SDS011;68949;53.176;18.088;2024-01-30T14:08:55;19.10;;;6.40;;
79487;SDS011;68949;53.176;18.088;2024-01-30T14:11:22;16.00;;;6.70;;
79487;SDS011;68949;53.176;18.088;2024-01-30T14:13:49;18.80;;;6.30;;
79487;SDS011;68949;53.176;18.088;2024-01-30T14:16:15;20.70;;;7.00;;
79487;SDS011;68949;53.176;18.088;2024-01-30T14:18:42;19.30;;;8.80;;
79487;SDS011;68949;53.176;18.088;2024-01-30T14:21:09;19.30;;;9.00;;
79487;SDS011;68949;53.176;18.088;2024-01-30T14:23:35;18.30;;;9.00;;